| Date | Time | Temp. (oF) | Dew Point (oF) | Rel. Hum. (%) | Press. (in.) | Wind Dir. | Wind Speed (mph) | Hourly Rainfall (in.) |
|
|---|---|---|---|---|---|---|---|---|---|
| 1 | 12/04 | 00:00 | 47 | 39 | 74 | 29.96 | NW | 1 | 0.00 |
| 2 | 12/03 | 23:00 | 47 | 38 | 71 | 29.95 | W | 3 | 0.00 |
| 3 | 12/03 | 22:00 | 47 | 38 | 71 | 29.93 | NNW | 5 | 0.00 |
| 4 | 12/03 | 21:00 | 46 | 37 | 72 | 29.91 | WNW | 2 | 0.00 |
| 5 | 12/03 | 20:00 | 47 | 38 | 71 | 29.90 | NNW | 7 | 0.00 |
| 6 | 12/03 | 19:00 | 49 | 38 | 67 | 29.87 | NW | 4 | 0.00 |
| 7 | 12/03 | 18:00 | 50 | 39 | 66 | 29.84 | SW | 1 | 0.00 |
| 8 | 12/03 | 17:00 | 50 | 39 | 67 | 29.80 | W | 10 | 0.00 |
| 9 | 12/03 | 16:00 | 51 | 39 | 65 | 29.76 | W | 3 | 0.00 |
| 10 | 12/03 | 15:00 | 52 | 40 | 64 | 29.73 | NNW | 7 | 0.00 |
| 11 | 12/03 | 14:00 | 55 | 43 | 65 | 29.67 | WNW | 16 | 0.00 |
| 12 | 12/03 | 13:00 | 60 | 46 | 60 | 29.61 | W | 13 | 0.00 |
| 13 | 12/03 | 12:00 | 59 | 45 | 61 | 29.57 | SW | 7 | 0.00 |
| 14 | 12/03 | 11:00 | 60 | 48 | 65 | 29.56 | SW | 13 | 0.00 |
| 15 | 12/03 | 10:00 | 60 | 50 | 71 | 29.55 | SW | 9 | 0.00 |
| 16 | 12/03 | 09:00 | 56 | 49 | 80 | 29.51 | SSW | 6 | 0.00 |
| 17 | 12/03 | 08:00 | 54 | 48 | 83 | 29.48 | SW | 8 | 0.00 |
| 18 | 12/03 | 07:00 | 54 | 48 | 82 | 29.45 | SW | 4 | 0.00 |
| 19 | 12/03 | 06:00 | 55 | 50 | 85 | 29.44 | SSW | 8 | 0.00 |
| 20 | 12/03 | 05:00 | 57 | 54 | 90 | 29.41 | NW | 9 | 0.03 |
| 21 | 12/03 | 04:00 | 58 | 58 | 100 | 29.32 | SSW | 5 | 0.27 |
| 22 | 12/03 | 03:00 | 58 | 58 | 100 | 29.33 | SW | 3 | 0.15 |
| 23 | 12/03 | 02:00 | 58 | 58 | 100 | 29.38 | S | 5 | 0.25 |
| 24 | 12/03 | 01:00 | 58 | 58 | 100 | 29.44 | SSW | 4 | 0.00 |